Time;durP1;ratioP1;P1;durP2;ratioP2;P2;SDS_P1;SDS_P2;PMS_P1;PMS_P2;Temp;Humidity;BMP_temperature;BMP_pressure;BME280_temperature;BME280_humidity;BME280_pressure;Samples;Min_cycle;Max_cycle;Signal;HPM_P1;HPM_P2
2023/03/23 00:00:06;;;;;;;202.70;77.65;;;;;;;10.77;100.00;99575.59;348835;28;853;-77
2023/03/23 00:00:17;;;;;;;205.55;77.57;;;;;;;10.79;100.00;99576.41;347365;28;5223;-77
2023/03/23 00:00:27;;;;;;;208.57;78.00;;;;;;;10.79;100.00;99579.00;348659;28;1325;-77
2023/03/23 00:00:38;;;;;;;210.90;77.80;;;;;;;10.79;100.00;99573.78;348919;28;843;-78
2023/03/23 00:00:49;;;;;;;207.18;77.47;;;;;;;10.80;100.00;99577.25;345944;28;1556;-76
2023/03/23 00:01:00;;;;;;;205.33;77.73;;;;;;;10.79;100.00;99579.00;348770;28;884;-77
2023/03/23 00:01:12;;;;;;;206.80;78.88;;;;;;;10.79;100.00;99579.00;350366;28;1299;-77
2023/03/23 00:01:26;;;;;;;208.75;78.50;;;;;;;10.80;100.00;99578.09;347413;28;927;-77
2023/03/23 00:01:36;;;;;;;206.75;77.82;;;;;;;10.81;100.00;99581.56;346179;28;1545;-76
2023/03/23 00:01:49;;;;;;;206.88;77.25;;;;;;;10.80;100.00;99570.25;348711;28;1358;-78
2023/03/23 00:02:00;;;;;;;206.85;77.55;;;;;;;10.81;100.00;99576.34;348903;28;892;-78
2023/03/23 00:02:10;;;;;;;209.27;79.37;;;;;;;10.80;100.00;99572.00;346874;28;1861;-77
2023/03/23 00:02:24;;;;;;;210.00;80.13;;;;;;;10.80;100.00;99580.72;347230;28;1670;-77
2023/03/23 00:02:35;;;;;;;212.38;80.32;;;;;;;10.81;100.00;99571.94;348644;28;1443;-77
2023/03/23 00:02:45;;;;;;;212.73;80.28;;;;;;;10.79;100.00;99573.78;350275;28;1563;-77
2023/03/23 00:02:56;;;;;;;213.53;80.70;;;;;;;10.80;100.00;99566.78;347706;28;1287;-77
2023/03/23 00:03:06;;;;;;;214.30;80.53;;;;;;;10.80;100.00;99579.88;348052;28;1825;-77
2023/03/23 00:03:17;;;;;;;210.30;79.53;;;;;;;10.80;100.00;99580.72;348672;28;1312;-77
2023/03/23 00:03:28;;;;;;;207.65;79.20;;;;;;;10.80;100.00;99578.09;348623;28;991;-77
2023/03/23 00:03:40;;;;;;;205.85;78.72;;;;;;;10.82;100.00;99573.66;346654;28;972;-78
2023/03/23 00:03:51;;;;;;;210.70;79.28;;;;;;;10.82;100.00;99575.41;343367;28;1498;-77
2023/03/23 00:04:01;;;;;;;210.48;80.03;;;;;;;10.82;100.00;99573.66;344609;28;1267;-77
2023/03/23 00:04:13;;;;;;;211.17;80.37;;;;;;;10.82;100.00;99578.88;346157;28;848;-75
2023/03/23 00:04:26;;;;;;;210.20;80.75;;;;;;;10.81;100.00;99577.19;347273;28;1433;-76
2023/03/23 00:04:37;;;;;;;210.15;79.90;;;;;;;10.81;100.00;99578.94;343381;28;876;-76
2023/03/23 00:04:48;;;;;;;206.80;78.90;;;;;;;10.80;100.00;99580.72;343247;28;1184;-77
2023/03/23 00:05:00;;;;;;;206.13;77.55;;;;;;;10.78;100.00;99579.94;345498;28;948;-76
2023/03/23 00:05:11;;;;;;;209.27;78.10;;;;;;;10.78;100.00;99576.47;346220;28;1131;-76
2023/03/23 00:05:21;;;;;;;211.30;78.97;;;;;;;10.79;100.00;99575.53;343371;28;782;-77
2023/03/23 00:05:31;;;;;;;211.77;79.97;;;;;;;10.79;100.00;99581.63;341646;28;1447;-76
2023/03/23 00:05:49;;;;;;;207.27;79.00;;;;;;;10.79;100.00;99583.41;345715;28;1318;-76
2023/03/23 00:06:04;;;;;;;203.52;77.10;;;;;;;10.80;100.00;99583.34;346819;28;1501;-76
2023/03/23 00:06:20;;;;;;;203.18;76.82;;;;;;;10.82;100.00;99583.28;343656;28;1414;-76
2023/03/23 00:06:32;;;;;;;203.48;77.18;;;;;;;10.84;100.00;99570.94;342974;28;1443;-76
2023/03/23 00:06:45;;;;;;;207.10;78.28;;;;;;;10.83;100.00;99570.09;341929;28;916;-76
2023/03/23 00:06:55;;;;;;;208.50;76.93;;;;;;;10.84;100.00;99570.94;341846;28;1281;-76
2023/03/23 00:07:05;;;;;;;208.30;78.28;;;;;;;10.85;100.00;99577.88;341617;28;1596;-76
2023/03/23 00:07:20;;;;;;;207.93;79.33;;;;;;;10.85;100.00;99568.25;341891;28;1348;-78
2023/03/23 00:07:32;;;;;;;208.43;80.55;;;;;;;10.85;100.00;99573.50;339019;28;1439;-77
2023/03/23 00:07:44;;;;;;;209.93;79.97;;;;;;;10.86;100.00;99580.44;341969;28;1131;-77
2023/03/23 00:07:56;;;;;;;209.15;78.95;;;;;;;10.85;100.00;99577.88;339647;28;1653;-77
2023/03/23 00:08:08;;;;;;;208.70;78.65;;;;;;;10.83;100.00;99570.09;337959;29;1701;-76
2023/03/23 00:08:21;;;;;;;207.45;78.03;;;;;;;10.84;100.00;99582.25;336390;29;3366;-76
2023/03/23 00:08:44;;;;;;;208.50;78.03;;;;;;;10.82;100.00;99568.41;339188;29;1326;-76
2023/03/23 00:08:59;;;;;;;203.73;76.38;;;;;;;10.82;100.00;99572.81;335998;29;1858;-79
2023/03/23 00:09:09;;;;;;;205.23;76.22;;;;;;;10.82;100.00;99573.66;332540;29;1540;-78
2023/03/23 00:09:23;;;;;;;205.57;76.57;;;;;;;10.82;100.00;99568.41;330561;29;682;-77
2023/03/23 00:09:41;;;;;;;204.65;77.63;;;;;;;10.81;100.00;99571.94;324325;30;1544;-77
2023/03/23 00:09:53;;;;;;;209.27;79.00;;;;;;;10.81;100.00;99571.94;320776;30;892;-77
2023/03/23 00:10:04;;;;;;;209.07;78.75;;;;;;;10.82;100.00;99567.56;324304;30;1264;-77
2023/03/23 00:10:15;;;;;;;209.73;79.50;;;;;;;10.83;100.00;99575.31;323760;30;1671;-77
2023/03/23 00:10:26;;;;;;;208.80;79.63;;;;;;;10.82;100.00;99568.41;318998;30;1616;-77
2023/03/23 00:10:36;;;;;;;207.82;79.22;;;;;;;10.83;100.00;99569.25;315190;31;1793;-76
2023/03/23 00:10:56;;;;;;;207.60;78.73;;;;;;;10.83;100.00;99570.09;321304;30;1343;-76
2023/03/23 00:11:07;;;;;;;210.38;79.53;;;;;;;10.85;100.00;99575.25;318907;30;1773;-76
2023/03/23 00:11:21;;;;;;;212.43;81.07;;;;;;;10.85;100.00;99576.09;317026;30;1516;-78
2023/03/23 00:11:32;;;;;;;212.07;80.95;;;;;;;10.85;100.00;99570.88;317351;30;1508;-77
2023/03/23 00:11:45;;;;;;;210.23;81.07;;;;;;;10.85;100.00;99568.25;319129;30;1841;-77
2023/03/23 00:11:56;;;;;;;208.25;81.15;;;;;;;10.86;100.00;99569.09;321351;30;1779;-75
2023/03/23 00:12:08;;;;;;;209.15;82.03;;;;;;;10.85;100.00;99573.50;321951;30;1563;-76
2023/03/23 00:12:34;;;;;;;211.15;83.45;;;;;;;10.86;100.00;99569.09;319557;30;1699;-77
2023/03/23 00:12:45;;;;;;;203.10;77.88;;;;;;;10.86;100.00;99572.56;316238;31;1791;-76
2023/03/23 00:12:56;;;;;;;205.15;79.30;;;;;;;10.86;100.00;99569.09;315200;31;1575;-76
2023/03/23 00:13:07;;;;;;;206.07;79.80;;;;;;;10.87;100.00;99571.66;314343;31;1679;-75
2023/03/23 00:13:21;;;;;;;207.68;81.47;;;;;;;10.87;100.00;99570.81;314542;31;1437;-77
2023/03/23 00:13:32;;;;;;;208.95;82.45;;;;;;;10.88;100.00;99578.59;311951;31;1671;-77
2023/03/23 00:13:43;;;;;;;213.65;84.18;;;;;;;10.87;100.00;99566.41;309654;31;2089;-77
2023/03/23 00:13:54;;;;;;;212.98;84.28;;;;;;;10.88;100.00;99570.75;309851;31;2593;-77
2023/03/23 00:14:04;;;;;;;210.10;82.70;;;;;;;10.88;100.00;99573.34;313948;31;1235;-78
2023/03/23 00:14:15;;;;;;;207.27;80.53;;;;;;;10.89;100.00;99568.97;310416;31;2271;-76
2023/03/23 00:14:25;;;;;;;207.40;79.80;;;;;;;10.88;100.00;99568.13;310639;31;2225;-76
2023/03/23 00:14:41;;;;;;;209.00;80.30;;;;;;;10.88;100.00;99570.75;310685;31;776;-77
2023/03/23 00:14:53;;;;;;;207.70;79.10;;;;;;;10.87;100.00;99565.56;309417;31;5491;-77
2023/03/23 00:15:05;;;;;;;207.35;78.03;;;;;;;10.87;100.00;99566.41;308449;32;852;-77
2023/03/23 00:15:16;;;;;;;211.45;80.03;;;;;;;10.87;100.00;99565.56;304458;32;1754;-77
2023/03/23 00:15:27;;;;;;;212.43;81.75;;;;;;;10.87;100.00;99571.66;300802;32;1916;-76
2023/03/23 00:15:41;;;;;;;213.52;82.85;;;;;;;10.87;100.00;99571.66;299930;32;1324;-78
2023/03/23 00:15:52;;;;;;;213.27;82.25;;;;;;;10.86;100.00;99577.81;303001;32;5632;-76
2023/03/23 00:16:02;;;;;;;215.77;84.17;;;;;;;10.87;100.00;99571.66;301748;32;3125;-76
2023/03/23 00:16:19;;;;;;;218.90;85.22;;;;;;;10.87;100.00;99569.03;296658;32;4367;-77
2023/03/23 00:16:31;;;;;;;218.30;85.68;;;;;;;10.86;100.00;99564.72;293319;33;3987;-77
2023/03/23 00:16:42;;;;;;;213.88;83.53;;;;;;;10.85;100.00;99568.25;293584;33;3290;-76
2023/03/23 00:16:54;;;;;;;213.50;83.65;;;;;;;10.85;100.00;99568.25;295437;32;3340;-77
2023/03/23 00:17:05;;;;;;;214.40;82.10;;;;;;;10.85;100.00;99568.25;296951;33;1338;-77
2023/03/23 00:17:15;;;;;;;214.87;82.87;;;;;;;10.85;100.00;99570.00;298130;32;4224;-76
2023/03/23 00:17:26;;;;;;;213.90;82.77;;;;;;;10.85;100.00;99568.25;295702;32;3437;-75
2023/03/23 00:17:37;;;;;;;213.80;82.93;;;;;;;10.86;100.00;99569.94;295472;33;1640;-75
2023/03/23 00:17:47;;;;;;;217.73;85.13;;;;;;;10.85;100.00;99570.88;292060;33;3783;-75
2023/03/23 00:18:02;;;;;;;217.23;84.82;;;;;;;10.86;100.00;99567.34;290511;33;4851;-76
2023/03/23 00:18:20;;;;;;;215.05;84.07;;;;;;;10.86;100.00;99564.72;287226;34;5094;-78
2023/03/23 00:18:31;;;;;;;216.40;84.72;;;;;;;10.87;100.00;99566.41;285146;34;7542;-77
2023/03/23 00:18:41;;;;;;;215.50;84.30;;;;;;;10.87;100.00;99569.03;283063;34;5743;-77
2023/03/23 00:18:52;;;;;;;211.93;83.07;;;;;;;10.87;100.00;99565.56;281665;35;1226;-77
2023/03/23 00:20:51;;;;;;;198.48;74.36;;;;;;;10.85;100.00;99568.25;2502330;27;20266;-77
2023/03/23 00:21:03;;;;;;;205.15;79.75;;;;;;;10.86;100.00;99566.47;349923;28;1410;-79
2023/03/23 00:21:14;;;;;;;205.80;81.05;;;;;;;10.85;100.00;99568.25;348513;28;6211;-77
2023/03/23 00:21:35;;;;;;;205.17;80.10;;;;;;;10.86;100.00;99569.94;347500;28;801;-78
2023/03/23 00:21:46;;;;;;;208.45;79.07;;;;;;;10.86;100.00;99569.94;348616;28;5608;-78
2023/03/23 00:21:56;;;;;;;208.57;79.10;;;;;;;10.86;100.00;99572.56;350092;28;1207;-77
2023/03/23 00:22:06;;;;;;;205.63;78.85;;;;;;;10.85;100.00;99570.88;345991;28;855;-77
2023/03/23 00:22:19;;;;;;;207.73;79.40;;;;;;;10.86;100.00;99569.09;348850;28;939;-77
2023/03/23 00:22:29;;;;;;;210.80;79.60;;;;;;;10.85;100.00;99567.41;348729;28;1298;-77
2023/03/23 00:22:40;;;;;;;211.60;79.40;;;;;;;10.83;100.00;99572.69;345651;28;1404;-77
2023/03/23 00:22:52;;;;;;;211.95;80.30;;;;;;;10.83;100.00;99572.69;347049;28;1596;-77
2023/03/23 00:23:03;;;;;;;209.20;80.57;;;;;;;10.83;100.00;99569.25;346398;28;1481;-79
2023/03/23 00:23:21;;;;;;;211.52;78.72;;;;;;;10.83;100.00;99575.31;346109;28;1167;-77
2023/03/23 00:23:31;;;;;;;210.13;78.38;;;;;;;10.84;100.00;99574.41;343257;28;928;-76
2023/03/23 00:23:44;;;;;;;205.13;78.95;;;;;;;10.84;100.00;99571.78;343379;28;913;-76
2023/03/23 00:23:55;;;;;;;204.32;78.05;;;;;;;10.83;100.00;99569.25;341946;28;1337;-77
2023/03/23 00:24:15;;;;;;;205.77;77.43;;;;;;;10.83;100.00;99574.50;343384;28;963;-76
2023/03/23 00:24:26;;;;;;;209.05;78.20;;;;;;;10.84;100.00;99571.78;344030;28;920;-78
2023/03/23 00:24:36;;;;;;;208.43;77.45;;;;;;;10.84;100.00;99574.41;344626;28;1460;-77
2023/03/23 00:24:48;;;;;;;206.20;77.03;;;;;;;10.83;100.00;99570.09;345989;28;1300;-77
2023/03/23 00:24:58;;;;;;;206.25;77.95;;;;;;;10.84;100.00;99571.78;345728;28;837;-77
2023/03/23 00:25:09;;;;;;;205.23;78.67;;;;;;;10.84;100.00;99571.78;343388;28;1322;-76
2023/03/23 00:25:19;;;;;;;207.90;80.68;;;;;;;10.85;100.00;99575.25;343253;28;1257;-76
2023/03/23 00:25:29;;;;;;;209.03;80.73;;;;;;;10.85;100.00;99570.00;343377;28;943;-77
2023/03/23 00:25:40;;;;;;;209.80;79.45;;;;;;;10.85;100.00;99565.63;346050;28;1213;-77
2023/03/23 00:25:58;;;;;;;209.57;78.77;;;;;;;10.85;100.00;99567.41;344770;28;999;-77
2023/03/23 00:26:09;;;;;;;208.77;79.30;;;;;;;10.85;100.00;99575.25;344577;28;875;-77
2023/03/23 00:26:19;;;;;;;207.90;79.80;;;;;;;10.85;100.00;99570.88;344688;28;1023;-78
2023/03/23 00:26:33;;;;;;;207.43;78.43;;;;;;;10.84;100.00;99577.03;344295;28;2498;-77
2023/03/23 00:26:45;;;;;;;208.05;79.72;;;;;;;10.84;100.00;99571.78;343725;28;2213;-77
2023/03/23 00:26:58;;;;;;;208.15;79.82;;;;;;;10.85;100.00;99575.25;342516;28;1503;-77
2023/03/23 00:27:12;;;;;;;205.57;79.00;;;;;;;10.84;100.00;99566.56;340213;28;1138;-78
2023/03/23 00:27:23;;;;;;;205.52;80.15;;;;;;;10.83;100.00;99567.47;342183;28;1541;-77
2023/03/23 00:27:34;;;;;;;203.13;79.37;;;;;;;10.84;100.00;99566.56;340604;29;1152;-78
2023/03/23 00:27:45;;;;;;;206.20;78.90;;;;;;;10.83;100.00;99569.25;343086;28;1353;-76
2023/03/23 00:27:57;;;;;;;206.40;77.53;;;;;;;10.84;100.00;99576.16;343431;28;903;-76
2023/03/23 00:28:07;;;;;;;210.02;78.65;;;;;;;10.83;100.00;99567.47;341967;28;1325;-76
2023/03/23 00:28:24;;;;;;;206.07;78.85;;;;;;;10.84;100.00;99569.16;339296;29;1234;-77
2023/03/23 00:28:34;;;;;;;208.30;77.90;;;;;;;10.84;100.00;99570.94;339285;29;1358;-77
2023/03/23 00:28:46;;;;;;;207.63;77.60;;;;;;;10.83;100.00;99570.09;340376;28;1633;-77
2023/03/23 00:28:56;;;;;;;209.43;78.75;;;;;;;10.83;100.00;99570.09;338719;29;1317;-76
2023/03/23 00:29:09;;;;;;;205.68;78.32;;;;;;;10.84;100.00;99574.41;337905;29;1784;-77
2023/03/23 00:29:21;;;;;;;206.80;77.85;;;;;;;10.85;100.00;99572.63;336899;29;860;-80
2023/03/23 00:29:32;;;;;;;209.15;78.15;;;;;;;10.84;100.00;99569.16;332883;29;1451;-77
2023/03/23 00:29:44;;;;;;;208.43;78.60;;;;;;;10.83;100.00;99570.09;331852;29;1347;-77
2023/03/23 00:29:55;;;;;;;207.25;78.40;;;;;;;10.81;100.00;99571.94;329679;29;1444;-78
2023/03/23 00:30:06;;;;;;;203.18;76.72;;;;;;;10.82;100.00;99572.81;331623;29;902;-77
2023/03/23 00:30:18;;;;;;;202.50;76.72;;;;;;;10.81;100.00;99577.19;333027;29;1311;-78
2023/03/23 00:30:29;;;;;;;203.82;78.28;;;;;;;10.82;100.00;99572.81;333881;29;1439;-78
2023/03/23 00:30:41;;;;;;;208.20;81.47;;;;;;;10.80;100.00;99570.25;330171;29;1823;-78
2023/03/23 00:30:56;;;;;;;210.18;82.32;;;;;;;10.80;100.00;99572.88;327737;29;1822;-76
2023/03/23 00:31:10;;;;;;;204.65;79.85;;;;;;;10.79;100.00;99567.69;329071;29;1832;-78
2023/03/23 00:31:21;;;;;;;207.45;79.55;;;;;;;10.78;100.00;99569.47;328871;29;1787;-76
2023/03/23 00:31:32;;;;;;;208.20;79.87;;;;;;;10.77;100.00;99575.59;328005;30;1799;-78
2023/03/23 00:31:46;;;;;;;207.68;79.90;;;;;;;10.79;100.00;99568.53;330063;29;2208;-78
2023/03/23 00:31:57;;;;;;;205.98;77.97;;;;;;;10.78;100.00;99576.47;330280;29;1757;-78
2023/03/23 00:32:12;;;;;;;211.02;79.68;;;;;;;10.78;100.00;99566.84;326859;30;1211;-77
2023/03/23 00:32:29;;;;;;;207.82;79.53;;;;;;;10.79;100.00;99567.69;327787;30;1789;-79
2023/03/23 00:32:40;;;;;;;204.20;78.53;;;;;;;10.79;100.00;99571.16;327545;29;2200;-78
2023/03/23 00:32:50;;;;;;;208.77;79.97;;;;;;;10.78;100.00;99569.47;323907;30;2355;-76
2023/03/23 00:33:01;;;;;;;210.98;80.57;;;;;;;10.78;100.00;99566.84;323201;30;805;-77
2023/03/23 00:33:12;;;;;;;211.17;82.40;;;;;;;10.78;100.00;99568.59;324811;30;2048;-76
2023/03/23 00:33:24;;;;;;;207.38;79.95;;;;;;;10.78;100.00;99566.00;327039;29;2144;-78
2023/03/23 00:33:40;;;;;;;206.65;79.88;;;;;;;10.77;100.00;99575.59;326461;30;1303;-78
2023/03/23 00:33:50;;;;;;;206.62;80.84;;;;;;;10.76;100.00;99567.81;323885;30;2593;-76
2023/03/23 00:34:03;;;;;;;206.63;80.00;;;;;;;10.76;100.00;99565.19;320315;30;1656;-80
2023/03/23 00:34:19;;;;;;;207.30;79.45;;;;;;;10.75;100.00;99571.34;318347;30;1837;-78
2023/03/23 00:34:33;;;;;;;206.40;78.93;;;;;;;10.76;100.00;99573.91;320554;30;1460;-79
2023/03/23 00:34:45;;;;;;;212.63;80.93;;;;;;;10.76;100.00;99563.44;323262;30;2089;-78
2023/03/23 00:34:58;;;;;;;216.27;82.90;;;;;;;10.75;100.00;99560.88;321611;30;2799;-77
2023/03/23 00:35:09;;;;;;;215.23;82.70;;;;;;;10.74;100.00;99573.13;317398;30;2782;-78
2023/03/23 00:35:19;;;;;;;213.32;82.63;;;;;;;10.76;100.00;99570.44;316144;31;989;-77
2023/03/23 00:35:30;;;;;;;214.60;82.80;;;;;;;10.75;100.00;99569.59;320767;30;2532;-76
2023/03/23 00:35:41;;;;;;;210.75;80.82;;;;;;;10.73;100.00;99571.41;320975;30;3111;-76
2023/03/23 00:35:54;;;;;;;210.07;80.78;;;;;;;10.75;100.00;99571.34;323062;30;3177;-76
2023/03/23 00:36:05;;;;;;;215.05;82.00;;;;;;;10.73;100.00;99571.41;322223;30;5254;-76
2023/03/23 00:36:17;;;;;;;220.30;83.65;;;;;;;10.73;100.00;99575.78;324243;30;853;-76
2023/03/23 00:36:28;;;;;;;220.05;83.50;;;;;;;10.73;100.00;99574.03;320772;30;2104;-77
2023/03/23 00:36:42;;;;;;;212.43;80.63;;;;;;;10.73;100.00;99573.19;317968;30;1978;-76
2023/03/23 00:36:56;;;;;;;205.07;77.93;;;;;;;10.72;100.00;99572.34;315387;30;4838;-76
2023/03/23 00:37:07;;;;;;;208.23;80.03;;;;;;;10.70;100.00;99566.31;316268;30;5302;-76
2023/03/23 00:37:17;;;;;;;209.77;81.63;;;;;;;10.72;100.00;99569.72;315159;31;897;-76
2023/03/23 00:37:28;;;;;;;213.15;84.75;;;;;;;10.72;100.00;99574.09;307210;31;4321;-77
2023/03/23 00:37:38;;;;;;;218.73;87.20;;;;;;;10.73;100.00;99568.81;304909;32;4412;-77
2023/03/23 00:37:49;;;;;;;222.03;88.47;;;;;;;10.72;100.00;99569.72;304171;32;869;-77
2023/03/23 00:37:59;;;;;;;218.27;84.65;;;;;;;10.73;100.00;99567.94;301381;32;3924;-77
2023/03/23 00:38:10;;;;;;;217.30;82.50;;;;;;;10.72;100.00;99577.56;301690;32;3599;-76
2023/03/23 00:38:24;;;;;;;216.82;81.93;;;;;;;10.72;100.00;99572.34;302399;32;4001;-76
2023/03/23 00:38:34;;;;;;;213.85;82.38;;;;;;;10.72;100.00;99571.47;299706;32;5132;-76
2023/03/23 00:38:46;;;;;;;215.73;83.00;;;;;;;10.72;100.00;99576.72;298185;32;3180;-76
2023/03/23 00:39:01;;;;;;;216.93;83.25;;;;;;;10.71;100.00;99567.16;297142;32;3257;-76
2023/03/23 00:39:11;;;;;;;213.65;82.82;;;;;;;10.73;100.00;99574.03;296075;33;5652;-78
2023/03/23 00:39:24;;;;;;;211.60;81.93;;;;;;;10.70;100.00;99568.94;295912;32;4926;-76
2023/03/23 00:39:36;;;;;;;212.80;82.22;;;;;;;10.70;100.00;99570.69;299830;32;1349;-77
2023/03/23 00:39:47;;;;;;;213.73;83.07;;;;;;;10.70;100.00;99570.69;297932;33;1450;-77
2023/03/23 00:40:00;;;;;;;210.97;80.93;;;;;;;10.71;100.00;99567.16;297798;32;5695;-77
2023/03/23 00:40:12;;;;;;;212.50;81.68;;;;;;;10.71;100.00;99570.63;297620;32;5599;-77
2023/03/23 00:40:22;;;;;;;215.05;82.60;;;;;;;10.70;100.00;99566.31;297165;32;4776;-77
2023/03/23 00:40:35;;;;;;;217.80;83.13;;;;;;;10.69;100.00;99569.84;296900;33;1232;-77
2023/03/23 00:40:47;;;;;;;212.25;80.68;;;;;;;10.69;100.00;99569.00;294823;33;4862;-77
2023/03/23 00:40:57;;;;;;;213.63;80.55;;;;;;;10.68;100.00;99568.13;289752;33;4983;-78
2023/03/23 00:41:11;;;;;;;211.35;79.15;;;;;;;10.67;100.00;99569.06;289611;33;4874;-78
2023/03/23 00:41:21;;;;;;;213.65;78.97;;;;;;;10.66;100.00;99567.34;287789;33;6718;-77
2023/03/23 00:41:32;;;;;;;221.50;82.20;;;;;;;10.67;100.00;99569.06;285387;34;1341;-77
2023/03/23 00:53:49;;;;;;;199.33;74.72;;;;;;;10.72;100.00;99554.00;2475161;27;20271;-77
2023/03/23 00:54:00;;;;;;;205.85;76.57;;;;;;;10.70;100.00;99560.22;349581;28;3763;-76
2023/03/23 00:54:10;;;;;;;211.03;80.53;;;;;;;10.69;100.00;99551.53;347102;28;2613;-76
2023/03/23 00:54:21;;;;;;;210.38;81.32;;;;;;;10.67;100.00;99558.59;346121;28;1007;-76
2023/03/23 00:54:31;;;;;;;209.30;81.37;;;;;;;10.67;100.00;99555.97;345570;28;1581;-76
2023/03/23 00:54:42;;;;;;;206.18;79.38;;;;;;;10.66;100.00;99562.97;346103;28;1445;-77
2023/03/23 00:54:52;;;;;;;208.97;80.77;;;;;;;10.66;100.00;99554.25;344642;28;1292;-76
2023/03/23 00:55:03;;;;;;;210.18;82.13;;;;;;;10.66;100.00;99556.88;344802;28;1176;-76
2023/03/23 00:55:14;;;;;;;210.43;81.30;;;;;;;10.65;100.00;99561.25;343337;28;950;-76
2023/03/23 00:55:25;;;;;;;207.27;79.47;;;;;;;10.66;100.00;99556.88;343056;28;827;-76
2023/03/23 00:55:35;;;;;;;206.83;79.47;;;;;;;10.66;100.00;99560.34;342077;28;860;-77
2023/03/23 00:55:46;;;;;;;205.35;78.93;;;;;;;10.66;100.00;99549.03;344456;28;1226;-77
2023/03/23 00:55:56;;;;;;;206.32;79.93;;;;;;;10.66;100.00;99554.25;345103;28;1359;-76
2023/03/23 00:56:07;;;;;;;206.90;80.07;;;;;;;10.66;100.00;99547.25;344801;28;943;-77
2023/03/23 00:56:18;;;;;;;210.68;80.82;;;;;;;10.67;100.00;99558.59;344727;28;880;-77
2023/03/23 00:56:28;;;;;;;212.17;80.80;;;;;;;10.66;100.00;99557.72;343530;28;1285;-77
2023/03/23 00:56:39;;;;;;;212.93;82.03;;;;;;;10.68;100.00;99559.44;343286;28;873;-77
2023/03/23 00:56:49;;;;;;;209.77;80.88;;;;;;;10.67;100.00;99555.97;343369;28;1414;-77
2023/03/23 00:57:00;;;;;;;212.17;81.13;;;;;;;10.66;100.00;99556.88;341943;28;1218;-77
2023/03/23 00:57:11;;;;;;;211.95;80.05;;;;;;;10.68;100.00;99560.28;344388;28;1197;-77
2023/03/23 00:57:23;;;;;;;211.32;80.13;;;;;;;10.67;100.00;99553.34;344678;28;805;-76
2023/03/23 00:57:34;;;;;;;209.95;80.22;;;;;;;10.67;100.00;99558.59;342162;28;877;-76
2023/03/23 00:57:45;;;;;;;210.85;81.13;;;;;;;10.66;100.00;99554.25;342841;28;1121;-76
2023/03/23 00:57:55;;;;;;;208.88;79.95;;;;;;;10.66;100.00;99559.50;344663;28;1009;-76
2023/03/23 00:58:06;;;;;;;210.70;80.57;;;;;;;10.66;100.00;99556.88;343326;28;944;-76
2023/03/23 00:58:16;;;;;;;208.57;79.55;;;;;;;10.66;100.00;99562.13;342135;28;1320;-76
2023/03/23 00:58:26;;;;;;;209.07;80.60;;;;;;;10.65;100.00;99561.25;342483;28;1094;-76
2023/03/23 00:58:37;;;;;;;207.10;80.45;;;;;;;10.64;100.00;99554.31;343437;28;873;-77
2023/03/23 00:58:47;;;;;;;208.40;80.80;;;;;;;10.64;100.00;99553.47;341967;28;1379;-77
2023/03/23 00:58:58;;;;;;;210.07;81.00;;;;;;;10.63;100.00;99557.00;340774;29;1580;-76
2023/03/23 00:59:09;;;;;;;211.37;81.50;;;;;;;10.64;100.00;99556.09;342095;28;1404;-77
2023/03/23 00:59:20;;;;;;;207.90;80.28;;;;;;;10.63;100.00;99562.25;343344;28;1631;-76
2023/03/23 00:59:32;;;;;;;208.23;80.03;;;;;;;10.61;100.00;99553.59;342460;28;917;-76
2023/03/23 00:59:42;;;;;;;209.77;81.22;;;;;;;10.61;100.00;99553.59;340508;29;1397;-76
2023/03/23 00:59:52;;;;;;;207.98;80.95;;;;;;;10.61;100.00;99553.59;340150;28;1513;-76
2023/03/23 01:00:09;;;;;;;209.20;80.57;;;;;;;10.59;100.00;99556.28;339310;29;1300;-76
2023/03/23 01:00:19;;;;;;;208.05;78.70;;;;;;;10.59;100.00;99556.28;341859;28;5769;-76
2023/03/23 01:00:30;;;;;;;208.60;78.10;;;;;;;10.60;100.00;99559.75;341253;28;1331;-76
2023/03/23 01:00:40;;;;;;;207.63;78.07;;;;;;;10.59;100.00;99556.28;337986;29;1206;-76
2023/03/23 01:00:51;;;;;;;212.80;79.88;;;;;;;10.58;100.00;99557.19;336801;29;1195;-76
2023/03/23 01:01:01;;;;;;;211.80;79.97;;;;;;;10.58;100.00;99556.34;337993;29;1697;-76
2023/03/23 01:01:12;;;;;;;211.43;79.15;;;;;;;10.58;100.00;99561.59;340735;29;971;-76
2023/03/23 01:01:22;;;;;;;212.07;79.40;;;;;;;10.59;100.00;99555.44;339447;29;870;-76
2023/03/23 01:01:33;;;;;;;213.70;79.55;;;;;;;10.59;100.00;99555.44;340530;29;1347;-75
2023/03/23 01:01:43;;;;;;;214.87;79.90;;;;;;;10.59;100.00;99558.91;339894;29;1252;-76
2023/03/23 01:01:54;;;;;;;211.07;79.10;;;;;;;10.60;100.00;99562.38;338176;28;1274;-76
2023/03/23 01:02:07;;;;;;;210.60;79.43;;;;;;;10.58;100.00;99557.19;340725;29;1244;-76
2023/03/23 01:02:19;;;;;;;215.50;81.95;;;;;;;10.60;100.00;99557.13;336466;29;1492;-76
2023/03/23 01:02:29;;;;;;;216.68;82.38;;;;;;;10.59;100.00;99558.91;335292;29;1417;-76
2023/03/23 01:02:40;;;;;;;215.03;82.27;;;;;;;10.61;100.00;99558.84;334749;29;1493;-76
2023/03/23 01:02:52;;;;;;;211.27;81.00;;;;;;;10.61;100.00;99558.84;338216;29;1130;-76
2023/03/23 01:03:03;;;;;;;212.52;80.07;;;;;;;10.60;100.00;99557.13;339332;29;887;-77
2023/03/23 01:03:18;;;;;;;210.88;80.68;;;;;;;10.60;100.00;99557.13;333892;29;4177;-76
2023/03/23 01:03:29;;;;;;;208.77;79.65;;;;;;;10.60;100.00;99551.91;338564;29;1293;-75
2023/03/23 01:03:39;;;;;;;209.25;79.90;;;;;;;10.61;100.00;99556.22;340085;29;1400;-76
2023/03/23 01:03:49;;;;;;;208.93;80.33;;;;;;;10.61;100.00;99558.84;336723;29;881;-77
2023/03/23 01:04:03;;;;;;;206.55;79.90;;;;;;;10.62;100.00;99561.41;334791;29;1749;-75
2023/03/23 01:04:14;;;;;;;204.38;78.05;;;;;;;10.61;100.00;99559.69;336717;29;4820;-75
2023/03/23 01:04:26;;;;;;;204.33;78.17;;;;;;;10.60;100.00;99554.53;338896;29;1992;-75
2023/03/23 01:04:38;;;;;;;208.75;79.35;;;;;;;10.61;100.00;99558.84;333063;29;1441;-77
2023/03/23 01:04:52;;;;;;;209.80;80.30;;;;;;;10.60;100.00;99562.38;334183;29;1456;-76
2023/03/23 01:05:03;;;;;;;205.23;78.88;;;;;;;10.58;100.00;99561.59;331465;29;5261;-75
2023/03/23 01:05:15;;;;;;;204.95;78.63;;;;;;;10.58;100.00;99556.34;331759;29;954;-76
2023/03/23 01:05:31;;;;;;;208.75;80.07;;;;;;;10.58;100.00;99554.59;332861;29;1135;-77
2023/03/23 01:05:42;;;;;;;211.90;79.95;;;;;;;10.59;100.00;99558.06;331984;29;1520;-76
2023/03/23 01:05:52;;;;;;;213.80;79.47;;;;;;;10.58;100.00;99558.97;328093;30;911;-76
2023/03/23 01:06:12;;;;;;;212.63;79.53;;;;;;;10.58;100.00;99559.81;326785;30;844;-76
2023/03/23 01:06:22;;;;;;;212.93;81.72;;;;;;;10.59;100.00;99558.06;326659;30;860;-77
2023/03/23 01:06:40;;;;;;;214.13;81.97;;;;;;;10.60;100.00;99558.00;328673;30;2049;-76
2023/03/23 01:06:51;;;;;;;209.98;80.63;;;;;;;10.61;100.00;99554.47;323077;30;5739;-75
2023/03/23 01:07:02;;;;;;;212.70;80.97;;;;;;;10.61;100.00;99558.84;320546;30;2569;-75
2023/03/23 01:07:12;;;;;;;215.67;81.63;;;;;;;10.61;100.00;99558.84;321075;30;1866;-75
2023/03/23 01:07:23;;;;;;;213.68;81.47;;;;;;;10.62;100.00;99560.53;318511;31;1376;-76
2023/03/23 01:07:33;;;;;;;208.15;79.57;;;;;;;10.61;100.00;99551.00;315066;31;882;-76
2023/03/23 01:07:44;;;;;;;208.63;80.93;;;;;;;10.62;100.00;99560.53;315323;31;1800;-75
2023/03/23 01:07:55;;;;;;;212.18;82.30;;;;;;;10.60;100.00;99552.75;316304;30;2242;-75
2023/03/23 01:08:06;;;;;;;208.73;81.38;;;;;;;10.61;100.00;99559.69;317406;31;1235;-75
2023/03/23 01:08:18;;;;;;;204.93;79.40;;;;;;;10.61;100.00;99556.22;315204;31;3351;-76
2023/03/23 01:08:31;;;;;;;208.80;80.57;;;;;;;10.61;100.00;99554.47;316514;30;2793;-78
2023/03/23 01:08:44;;;;;;;211.90;80.70;;;;;;;10.61;100.00;99556.22;315614;31;2831;-77